createdAt,value
2023-02-19T00:00:09.627Z,93967.50
2023-02-19T00:01:18.271Z,93969.97
2023-02-19T00:02:14.852Z,93969.53
2023-02-19T00:03:11.589Z,93979.50
2023-02-19T00:04:14.704Z,93969.06
2023-02-19T00:05:11.371Z,93982.50
2023-02-19T00:06:10.538Z,93919.34
2023-02-19T00:07:07.169Z,93970.50
2023-02-19T00:08:04.099Z,93961.06
2023-02-19T00:09:01.432Z,93924.88
2023-02-19T00:09:58.021Z,93964.28
2023-02-19T00:10:54.717Z,93959.16
2023-02-19T00:11:51.346Z,93974.59
2023-02-19T00:12:47.948Z,93929.06
2023-02-19T00:13:47.274Z,93964.94
2023-02-19T00:14:43.982Z,93927.44
2023-02-19T00:15:40.582Z,93977.38
2023-02-19T00:16:39.598Z,93971.28
2023-02-19T00:17:36.136Z,93971.28
2023-02-19T00:18:32.775Z,93967.59
2023-02-19T00:19:29.454Z,93966.19
2023-02-19T00:20:26.092Z,93958.41
2023-02-19T00:21:23.438Z,93962.81
2023-02-19T00:22:20.051Z,93967.03
2023-02-19T00:23:16.746Z,93924.16
2023-02-19T00:24:14.792Z,93954.59
2023-02-19T00:25:11.363Z,93964.81
2023-02-19T00:26:18.264Z,93970.78
2023-02-19T00:27:15.867Z,93967.25
2023-02-19T00:28:12.409Z,93966.59
2023-02-19T00:29:12.981Z,93971.47
2023-02-19T00:30:10.158Z,93962.84
2023-02-19T00:31:16.246Z,93952.34
2023-02-19T00:32:12.976Z,93960.09
2023-02-19T00:33:09.622Z,93940.38
2023-02-19T00:34:06.901Z,93961.16
2023-02-19T00:35:04.484Z,93941.44
2023-02-19T00:36:03.161Z,93954.25
2023-02-19T00:36:59.881Z,93932.41
2023-02-19T00:37:56.495Z,93921.44
2023-02-19T00:38:53.502Z,93948.94
2023-02-19T00:39:50.187Z,93897.88
2023-02-19T00:40:46.755Z,93935.66
2023-02-19T00:41:44.049Z,93946.19
2023-02-19T00:42:40.614Z,93939.53
2023-02-19T00:43:37.187Z,93937.19
2023-02-19T00:44:33.764Z,93934.19
2023-02-19T00:45:30.404Z,93949.63
2023-02-19T00:46:28.221Z,93944.41
2023-02-19T00:47:24.815Z,93944.75
2023-02-19T00:48:21.432Z,93942.41
2023-02-19T00:49:21.613Z,93947.81
2023-02-19T00:50:18.295Z,93950.41
2023-02-19T00:51:15.337Z,93947.03
2023-02-19T00:52:11.951Z,93943.81
2023-02-19T00:53:08.614Z,93952.81
2023-02-19T00:54:06.115Z,93952.00
2023-02-19T00:55:02.906Z,93962.06
2023-02-19T00:55:59.480Z,93946.16
2023-02-19T00:56:58.768Z,93954.44
2023-02-19T00:57:55.643Z,93945.84
2023-02-19T00:58:52.722Z,93949.28
2023-02-19T00:59:49.345Z,93946.13
2023-02-19T01:00:45.908Z,93942.59
2023-02-19T01:01:44.698Z,93939.59
2023-02-19T01:02:41.451Z,93947.16
2023-02-19T01:03:39.029Z,93941.81
2023-02-19T01:04:35.775Z,93932.19
2023-02-19T01:05:32.456Z,93936.13
2023-02-19T01:06:30.820Z,93948.94
2023-02-19T01:07:27.534Z,93904.63
2023-02-19T01:08:24.209Z,93918.38
2023-02-19T01:09:20.850Z,93937.00
2023-02-19T01:10:17.410Z,93935.81
2023-02-19T01:11:15.168Z,93886.59
2023-02-19T01:12:11.802Z,93942.94
2023-02-19T01:13:08.688Z,93931.41
2023-02-19T01:14:05.573Z,93938.28
2023-02-19T01:15:02.258Z,93931.91
2023-02-19T01:16:12.951Z,93933.50
2023-02-19T01:17:09.642Z,93932.03
2023-02-19T01:18:06.625Z,93936.88
2023-02-19T01:19:03.536Z,93923.09
2023-02-19T01:20:00.142Z,93931.91
2023-02-19T01:20:56.787Z,93931.94
2023-02-19T01:21:53.426Z,93923.09
2023-02-19T01:22:50.057Z,93933.66
2023-02-19T01:23:47.122Z,93939.81
2023-02-19T01:24:43.729Z,93924.84
2023-02-19T01:25:42.266Z,93835.09
2023-02-19T01:26:38.850Z,93932.78
2023-02-19T01:27:35.435Z,93935.50
2023-02-19T01:28:32.127Z,93936.47
2023-02-19T01:29:28.760Z,93940.00
2023-02-19T01:30:25.423Z,93943.47
2023-02-19T01:31:24.200Z,93943.03
2023-02-19T01:32:21.065Z,93943.50
2023-02-19T01:33:17.807Z,93953.50
2023-02-19T01:34:14.377Z,93956.06
2023-02-19T01:35:10.900Z,93956.91
2023-02-19T01:36:07.759Z,93951.94
2023-02-19T01:37:04.373Z,93875.63
2023-02-19T01:38:00.977Z,93959.47
2023-02-19T01:39:00.517Z,93969.91
2023-02-19T01:39:57.132Z,93957.94
2023-02-19T01:40:59.505Z,93963.94
2023-02-19T01:41:56.113Z,93962.13
2023-02-19T01:42:52.890Z,93950.59
2023-02-19T01:44:28.032Z,93960.69
2023-02-19T01:45:30.777Z,93928.19
2023-02-19T01:46:38.980Z,93954.00
2023-02-19T01:47:35.650Z,93954.56
2023-02-19T01:48:36.847Z,93954.53
2023-02-19T01:49:40.505Z,93950.78
2023-02-19T01:50:59.983Z,93898.16
2023-02-19T01:52:09.883Z,93949.28
2023-02-19T01:53:11.246Z,93921.31
2023-02-19T01:54:12.253Z,93952.91
2023-02-19T01:55:12.784Z,93951.31
2023-02-19T01:56:10.304Z,93952.88
2023-02-19T01:57:11.285Z,93957.78
2023-02-19T01:58:09.492Z,93953.63
2023-02-19T01:59:07.525Z,93882.34
2023-02-19T02:00:09.946Z,93944.72
2023-02-19T02:01:08.660Z,93947.69
2023-02-19T02:02:06.153Z,93921.88
2023-02-19T02:03:04.143Z,93939.50
2023-02-19T02:04:01.119Z,93914.09
2023-02-19T02:05:00.283Z,93925.59
2023-02-19T02:06:05.412Z,93876.41
2023-02-19T02:07:24.814Z,93948.16
2023-02-19T02:08:40.039Z,93918.31
2023-02-19T02:09:55.100Z,93947.47
2023-02-19T02:10:52.834Z,93943.50
2023-02-19T02:11:52.302Z,93947.72
2023-02-19T02:12:50.668Z,93954.31
2023-02-19T02:13:48.533Z,93951.44
2023-02-19T02:14:47.643Z,93943.00
2023-02-19T02:16:16.467Z,93944.16
2023-02-19T02:17:29.688Z,93939.59
2023-02-19T02:18:35.913Z,93944.72
2023-02-19T02:19:56.303Z,93932.19
2023-02-19T02:20:59.460Z,93924.66
2023-02-19T02:22:06.451Z,93939.63
2023-02-19T02:23:54.875Z,93937.34
2023-02-19T02:25:12.941Z,93939.28
2023-02-19T02:26:21.248Z,93887.06
2023-02-19T02:27:39.348Z,93940.88
2023-02-19T02:29:20.077Z,93939.19
2023-02-19T02:30:32.575Z,93929.44
2023-02-19T02:32:04.290Z,93911.94
2023-02-19T02:33:32.527Z,93947.19
2023-02-19T02:34:41.677Z,93953.13
2023-02-19T02:36:01.139Z,93951.00
2023-02-19T02:36:58.551Z,93958.88
2023-02-19T02:38:00.672Z,93954.72
2023-02-19T02:38:58.413Z,93956.41
2023-02-19T02:39:58.312Z,93954.63
2023-02-19T02:40:55.988Z,93958.78
2023-02-19T02:42:16.795Z,93959.22
2023-02-19T02:43:13.955Z,93948.13
2023-02-19T02:44:10.886Z,93951.38
2023-02-19T02:45:39.876Z,93959.72
2023-02-19T02:46:40.324Z,93966.94
2023-02-19T02:47:44.742Z,93965.63
2023-02-19T02:48:56.757Z,93968.09
2023-02-19T02:50:05.273Z,93968.72
2023-02-19T02:51:01.854Z,93976.25
2023-02-19T02:52:21.240Z,93967.63
2023-02-19T02:53:47.271Z,93962.97
2023-02-19T02:55:02.845Z,93926.47
2023-02-19T02:56:01.009Z,93969.94
2023-02-19T02:56:59.327Z,93961.59
2023-02-19T02:57:56.119Z,93935.25
2023-02-19T02:58:56.261Z,93965.03
2023-02-19T02:59:52.952Z,93967.50
2023-02-19T03:01:15.480Z,93969.88
2023-02-19T03:02:19.128Z,93968.56
2023-02-19T03:03:19.785Z,93968.59
2023-02-19T03:04:28.354Z,93904.75
2023-02-19T03:05:45.996Z,93970.03
2023-02-19T03:06:45.128Z,93966.72
2023-02-19T03:07:47.667Z,93963.13
2023-02-19T03:08:47.670Z,93965.25
2023-02-19T03:09:44.599Z,93974.00
2023-02-19T03:10:47.481Z,93968.22
2023-02-19T03:12:07.920Z,93968.56
2023-02-19T03:13:26.764Z,93975.78
2023-02-19T03:14:50.223Z,93973.09
2023-02-19T03:16:02.615Z,93977.13
2023-02-19T03:17:25.095Z,93966.81
2023-02-19T03:18:42.230Z,93978.03
2023-02-19T03:19:43.491Z,93981.72
2023-02-19T03:20:45.621Z,93983.03
2023-02-19T03:21:45.576Z,93984.59
2023-02-19T03:22:44.846Z,93966.25
2023-02-19T03:24:03.426Z,93993.47
2023-02-19T03:25:38.822Z,93983.63
2023-02-19T03:26:38.769Z,93991.22
2023-02-19T03:27:38.527Z,93989.59
2023-02-19T03:28:59.399Z,93992.66
2023-02-19T03:30:01.880Z,93925.16
2023-02-19T03:30:58.436Z,93991.03
2023-02-19T03:32:03.788Z,93992.38
2023-02-19T03:33:08.280Z,93951.38
2023-02-19T03:34:10.399Z,94006.31
2023-02-19T03:35:11.656Z,93999.84
2023-02-19T03:36:15.410Z,94000.69
2023-02-19T03:37:29.859Z,93929.72
2023-02-19T03:38:38.000Z,94004.41
2023-02-19T03:39:44.379Z,94010.44
2023-02-19T03:40:58.814Z,94009.31
2023-02-19T03:41:55.397Z,94002.31
2023-02-19T03:43:21.795Z,94009.47
2023-02-19T03:45:02.615Z,94008.41
2023-02-19T03:46:08.256Z,94002.44
2023-02-19T03:47:16.000Z,94002.03
2023-02-19T03:48:30.628Z,93993.53
2023-02-19T03:49:41.518Z,93962.09
2023-02-19T03:50:50.447Z,94000.31
2023-02-19T03:51:55.008Z,94003.03
2023-02-19T03:53:12.216Z,94005.47
2023-02-19T03:54:18.333Z,93998.69
2023-02-19T03:55:26.396Z,94003.22
2023-02-19T03:56:32.165Z,94003.72
2023-02-19T03:57:44.468Z,93944.38
2023-02-19T03:59:17.683Z,93945.38
2023-02-19T04:00:23.183Z,93991.81
2023-02-19T04:01:28.851Z,93997.03
2023-02-19T04:02:42.925Z,94007.38
2023-02-19T04:03:56.853Z,94008.72
2023-02-19T04:05:08.165Z,94016.63
2023-02-19T04:06:12.073Z,94011.63
2023-02-19T04:07:08.709Z,94010.28
2023-02-19T04:08:13.649Z,93965.75
2023-02-19T04:09:13.099Z,94009.91
2023-02-19T04:10:10.119Z,93948.34
2023-02-19T04:11:08.037Z,94002.56
2023-02-19T04:12:06.898Z,94008.00
2023-02-19T04:13:10.562Z,94007.13
2023-02-19T04:14:24.891Z,94003.59
2023-02-19T04:15:30.251Z,94003.25
2023-02-19T04:16:29.528Z,94009.34
2023-02-19T04:17:52.188Z,94005.81
2023-02-19T04:18:54.545Z,94012.47
2023-02-19T04:19:52.188Z,94013.59
2023-02-19T04:20:48.994Z,94004.13
2023-02-19T04:21:47.086Z,94004.00
2023-02-19T04:22:44.630Z,94007.63
2023-02-19T04:23:44.786Z,93998.88
2023-02-19T04:24:46.747Z,94004.44
2023-02-19T04:25:47.056Z,93968.41
2023-02-19T04:26:45.175Z,93998.94
2023-02-19T04:27:44.847Z,94013.53
2023-02-19T04:28:43.082Z,94003.34
2023-02-19T04:29:39.862Z,93876.97
2023-02-19T04:30:36.610Z,94012.69
2023-02-19T04:31:35.833Z,94012.41
2023-02-19T04:32:32.487Z,94017.47
2023-02-19T04:33:29.016Z,94016.19
2023-02-19T04:34:25.608Z,94023.19
2023-02-19T04:35:22.216Z,94017.28
2023-02-19T04:36:18.821Z,94020.41
2023-02-19T04:37:15.454Z,94019.25
2023-02-19T04:38:13.777Z,94016.19
2023-02-19T04:39:10.456Z,94015.69
2023-02-19T04:40:07.570Z,94011.22
2023-02-19T04:41:04.256Z,94023.50
2023-02-19T04:42:00.855Z,94019.22
2023-02-19T04:42:57.621Z,93986.53
2023-02-19T04:43:54.262Z,93980.78
2023-02-19T04:44:50.923Z,94020.09
2023-02-19T04:45:47.508Z,94026.13
2023-02-19T04:46:44.109Z,94029.22
2023-02-19T04:47:40.766Z,94029.28
2023-02-19T04:48:37.633Z,94022.16
2023-02-19T04:49:34.214Z,94025.44
2023-02-19T04:50:30.879Z,94023.56
2023-02-19T04:51:27.686Z,94034.06
2023-02-19T04:52:24.272Z,94029.44
2023-02-19T04:53:20.860Z,94028.34
2023-02-19T04:54:17.461Z,94027.72
2023-02-19T04:55:14.289Z,93987.34
2023-02-19T04:56:13.830Z,94035.34
2023-02-19T04:57:10.437Z,94020.41
2023-02-19T04:58:07.057Z,94037.06
2023-02-19T04:59:03.890Z,94036.13
2023-02-19T05:00:00.538Z,94037.94
2023-02-19T05:00:57.255Z,94027.97
2023-02-19T05:01:53.910Z,93982.59
2023-02-19T05:02:50.546Z,94030.47
2023-02-19T05:03:47.108Z,94038.38
2023-02-19T05:04:43.738Z,94038.84
2023-02-19T05:05:40.302Z,94012.50
2023-02-19T05:06:36.927Z,94049.22
2023-02-19T05:07:33.918Z,94016.25
2023-02-19T05:08:30.701Z,94034.59
2023-02-19T05:09:27.276Z,94051.50
2023-02-19T05:10:23.876Z,94039.47
2023-02-19T05:11:20.501Z,94066.19
2023-02-19T05:12:17.113Z,94036.69
2023-02-19T05:13:13.802Z,94048.63
2023-02-19T05:14:10.421Z,94047.41
2023-02-19T05:15:07.297Z,94015.66
2023-02-19T05:16:10.404Z,94044.63
2023-02-19T05:17:07.028Z,94053.19
2023-02-19T05:18:04.473Z,94049.69
2023-02-19T05:19:01.077Z,94043.97
2023-02-19T05:19:57.640Z,94047.84
2023-02-19T05:20:54.372Z,94048.31
2023-02-19T05:21:50.992Z,94037.72
2023-02-19T05:22:47.607Z,94045.88
2023-02-19T05:23:44.522Z,94025.22
2023-02-19T05:24:41.101Z,94055.06
2023-02-19T05:25:37.634Z,94051.41
2023-02-19T05:26:34.511Z,94056.28
2023-02-19T05:27:31.723Z,94055.94
2023-02-19T05:28:31.337Z,94042.63
2023-02-19T05:29:28.089Z,94032.09
2023-02-19T05:30:24.727Z,94050.03
2023-02-19T05:31:21.973Z,94017.72
2023-02-19T05:32:18.657Z,94039.94
2023-02-19T05:33:16.861Z,94052.97
2023-02-19T05:34:13.466Z,94030.75
2023-02-19T05:35:10.028Z,93998.31
2023-02-19T05:36:10.610Z,94052.13
2023-02-19T05:37:07.224Z,94050.50
2023-02-19T05:38:05.886Z,94062.13
2023-02-19T05:39:02.759Z,94058.41
2023-02-19T05:39:59.318Z,94065.78
2023-02-19T05:40:55.927Z,93960.41
2023-02-19T05:41:52.493Z,94015.25
2023-02-19T05:42:49.090Z,94058.94
2023-02-19T05:43:47.395Z,94076.16
2023-02-19T05:44:44.114Z,93982.06
2023-02-19T05:45:41.268Z,94049.56
2023-02-19T05:46:37.979Z,94076.00
2023-02-19T05:47:34.589Z,94078.38
2023-02-19T05:48:31.204Z,94087.31
2023-02-19T05:49:27.989Z,94077.81
2023-02-19T05:50:24.533Z,94083.47
2023-02-19T05:51:23.455Z,94082.09
2023-02-19T05:52:20.033Z,94086.34
2023-02-19T05:53:16.619Z,94081.38
2023-02-19T05:54:13.216Z,94079.81
2023-02-19T05:55:11.370Z,94081.22
2023-02-19T05:56:27.099Z,94085.59
2023-02-19T05:57:23.722Z,94089.03
2023-02-19T05:58:20.259Z,94008.22
2023-02-19T05:59:19.695Z,94084.72
2023-02-19T06:00:18.542Z,94092.06
2023-02-19T06:01:18.247Z,94093.16
2023-02-19T06:02:14.943Z,94094.63
2023-02-19T06:03:11.520Z,94091.31
2023-02-19T06:04:09.453Z,94085.41
2023-02-19T06:05:07.029Z,94094.13
2023-02-19T06:06:03.920Z,94097.25
2023-02-19T06:07:00.550Z,94097.59
2023-02-19T06:07:57.164Z,94082.28
2023-02-19T06:08:54.066Z,94093.53
2023-02-19T06:09:51.736Z,94093.84
2023-02-19T06:10:48.318Z,94093.84
2023-02-19T06:11:45.215Z,94101.81
2023-02-19T06:12:41.770Z,94051.72
2023-02-19T06:13:38.363Z,94103.53
2023-02-19T06:14:34.913Z,94093.22
2023-02-19T06:15:31.490Z,94001.03
2023-02-19T06:16:28.273Z,94083.38
2023-02-19T06:17:24.995Z,94106.00
2023-02-19T06:18:21.674Z,94006.81
2023-02-19T06:19:18.456Z,94037.53
2023-02-19T06:20:15.251Z,94098.06
2023-02-19T06:21:13.094Z,94098.75
2023-02-19T06:22:10.058Z,94105.94
2023-02-19T06:23:06.662Z,94114.66
2023-02-19T06:24:07.920Z,94112.00
2023-02-19T06:25:04.938Z,94075.03
2023-02-19T06:26:13.319Z,94113.00
2023-02-19T06:27:10.199Z,94110.59
2023-02-19T06:28:06.879Z,94113.81
2023-02-19T06:29:03.929Z,94078.56
2023-02-19T06:30:00.571Z,94047.75
2023-02-19T06:30:59.302Z,94117.28
2023-02-19T06:31:55.989Z,94119.03
2023-02-19T06:32:54.368Z,94113.91
2023-02-19T06:33:51.045Z,94116.06
2023-02-19T06:34:47.678Z,94103.28
2023-02-19T06:35:44.344Z,94113.56
2023-02-19T06:36:41.050Z,94064.84
2023-02-19T06:37:37.743Z,94127.25
2023-02-19T06:38:34.324Z,94038.56
2023-02-19T06:39:31.005Z,94125.50
2023-02-19T06:40:27.589Z,94114.88
2023-02-19T06:41:24.136Z,94068.47
2023-02-19T06:42:20.763Z,94112.63
2023-02-19T06:43:17.430Z,94082.56
2023-02-19T06:44:14.022Z,94120.09
2023-02-19T06:45:10.934Z,94122.34
2023-02-19T06:46:08.452Z,94122.25
2023-02-19T06:47:05.091Z,94128.41
2023-02-19T06:48:01.716Z,94092.78
2023-02-19T06:48:58.394Z,94127.13
2023-02-19T06:49:55.040Z,94130.31
2023-02-19T06:50:51.596Z,94113.72
2023-02-19T06:51:48.287Z,94121.47
2023-02-19T06:52:44.873Z,94104.72
2023-02-19T06:53:41.457Z,94137.09
2023-02-19T06:54:38.061Z,94082.63
2023-02-19T06:55:34.627Z,94137.41
2023-02-19T06:56:37.617Z,94131.72
2023-02-19T06:57:34.187Z,94107.44
2023-02-19T06:58:31.363Z,94123.16
2023-02-19T06:59:28.106Z,94107.50
2023-02-19T07:00:24.800Z,94126.94
2023-02-19T07:01:23.012Z,94141.94
2023-02-19T07:02:19.666Z,94121.19
2023-02-19T07:03:16.233Z,94137.31
2023-02-19T07:04:12.853Z,94134.56
2023-02-19T07:05:09.481Z,94082.75
2023-02-19T07:06:06.383Z,94137.53
2023-02-19T07:07:03.005Z,94124.88
2023-02-19T07:07:59.596Z,94132.19
2023-02-19T07:08:58.033Z,94128.69
2023-02-19T07:09:54.644Z,94134.69
2023-02-19T07:10:58.625Z,94137.91
2023-02-19T07:11:55.222Z,94126.28
2023-02-19T07:12:51.820Z,94131.81
2023-02-19T07:13:48.362Z,94131.81
2023-02-19T07:14:44.947Z,94093.09
2023-02-19T07:15:41.525Z,94128.91
2023-02-19T07:16:39.410Z,94131.34
2023-02-19T07:17:36.219Z,94126.09
2023-02-19T07:18:32.860Z,94135.97
2023-02-19T07:19:29.464Z,94057.56
2023-02-19T07:20:26.061Z,94122.19
2023-02-19T07:21:22.760Z,94126.91
2023-02-19T07:22:19.299Z,94088.66
2023-02-19T07:23:15.890Z,94109.13
2023-02-19T07:24:12.906Z,94116.66
2023-02-19T07:25:09.553Z,94110.94
2023-02-19T07:26:10.356Z,94063.19
2023-02-19T07:27:06.913Z,94109.84
2023-02-19T07:28:03.641Z,94104.47
2023-02-19T07:29:00.545Z,94114.66
2023-02-19T07:29:57.438Z,94074.41
2023-02-19T07:30:57.648Z,94111.91
2023-02-19T07:31:54.330Z,94116.97
2023-02-19T07:32:50.950Z,94115.84
2023-02-19T07:33:48.233Z,94115.41
2023-02-19T07:34:44.790Z,94107.63
2023-02-19T07:35:48.417Z,94106.97
2023-02-19T07:36:45.008Z,94108.88
2023-02-19T07:37:41.836Z,94108.97
2023-02-19T07:38:38.587Z,94113.94
2023-02-19T07:39:35.226Z,94110.19
2023-02-19T07:40:31.826Z,94111.53
2023-02-19T07:41:28.493Z,94115.44
2023-02-19T07:42:25.060Z,94107.88
2023-02-19T07:43:22.802Z,94086.34
2023-02-19T07:44:19.345Z,94118.44
2023-02-19T07:45:16.137Z,94062.13
2023-02-19T07:46:14.264Z,94116.97
2023-02-19T07:47:10.921Z,94121.53
2023-02-19T07:48:07.492Z,94109.06
2023-02-19T07:49:04.263Z,94109.31
2023-02-19T07:50:00.837Z,94110.97
2023-02-19T07:50:59.748Z,94080.66
2023-02-19T07:51:56.364Z,94105.41
2023-02-19T07:52:52.968Z,94109.97
2023-02-19T07:53:52.855Z,94111.22
2023-02-19T07:54:49.539Z,94114.22
2023-02-19T07:55:46.138Z,94120.88
2023-02-19T07:56:42.743Z,94122.88
2023-02-19T07:57:39.347Z,94126.09
2023-02-19T07:58:36.311Z,94125.22
2023-02-19T07:59:32.901Z,94091.06
2023-02-19T08:00:29.458Z,94124.63
2023-02-19T08:01:44.723Z,94117.41
2023-02-19T08:03:04.144Z,94117.84
2023-02-19T08:04:00.750Z,94129.56
2023-02-19T08:04:57.355Z,94124.59
2023-02-19T08:05:55.070Z,94122.41
2023-02-19T08:06:53.030Z,94131.41
2023-02-19T08:07:49.578Z,94120.97
2023-02-19T08:08:46.254Z,94116.91
2023-02-19T08:09:42.918Z,94117.38
2023-02-19T08:10:58.546Z,94119.50
2023-02-19T08:12:14.050Z,94113.69
2023-02-19T08:13:28.340Z,94111.16
2023-02-19T08:14:27.831Z,94118.97
2023-02-19T08:15:24.418Z,94111.53
2023-02-19T08:16:33.070Z,94118.81
2023-02-19T08:17:31.187Z,94117.03
2023-02-19T08:18:30.332Z,94102.19
2023-02-19T08:19:26.909Z,94074.16
2023-02-19T08:20:23.518Z,94112.41
2023-02-19T08:21:20.662Z,94109.41
2023-02-19T08:22:17.386Z,94117.25
2023-02-19T08:23:14.448Z,94116.41
2023-02-19T08:24:11.280Z,94114.00
2023-02-19T08:25:08.386Z,94110.03
2023-02-19T08:26:05.905Z,94118.22
2023-02-19T08:27:02.465Z,94114.19
2023-02-19T08:28:00.423Z,94115.16
2023-02-19T08:28:58.989Z,94113.66
2023-02-19T08:29:55.646Z,94108.78
2023-02-19T08:30:53.009Z,94122.09
2023-02-19T08:31:49.827Z,94093.91
2023-02-19T08:32:46.437Z,94117.38
2023-02-19T08:33:43.028Z,94114.00
2023-02-19T08:34:39.660Z,94106.59
2023-02-19T08:35:38.964Z,94069.50
2023-02-19T08:36:35.528Z,94102.06
2023-02-19T08:37:32.119Z,94094.31
2023-02-19T08:38:28.743Z,94105.78
2023-02-19T08:39:25.345Z,94104.50
2023-02-19T08:40:22.054Z,94102.91
2023-02-19T08:41:18.701Z,94103.06
2023-02-19T08:42:15.326Z,94104.00
2023-02-19T08:43:14.472Z,94089.25
2023-02-19T08:44:11.157Z,94100.31
2023-02-19T08:45:08.401Z,94082.59
2023-02-19T08:46:07.126Z,94106.41
2023-02-19T08:47:05.112Z,94113.84
2023-02-19T08:48:01.842Z,94112.25
2023-02-19T08:48:58.462Z,94117.34
2023-02-19T08:49:58.062Z,94110.94
2023-02-19T08:50:59.514Z,94102.78
2023-02-19T08:51:56.092Z,94090.00
2023-02-19T08:52:55.351Z,94105.75
2023-02-19T08:53:51.998Z,94095.81
2023-02-19T08:54:48.590Z,94105.50
2023-02-19T08:55:45.298Z,94094.56
2023-02-19T08:56:41.966Z,94095.66
2023-02-19T08:57:38.750Z,94028.75
2023-02-19T08:58:36.157Z,94095.34
2023-02-19T08:59:32.732Z,94091.81
2023-02-19T09:00:29.369Z,94062.28
2023-02-19T09:01:26.001Z,94088.38
2023-02-19T09:02:23.931Z,94082.63
2023-02-19T09:03:20.635Z,94090.78
2023-02-19T09:04:17.247Z,94088.66
2023-02-19T09:05:14.458Z,94094.19
2023-02-19T09:06:17.038Z,94079.50
2023-02-19T09:07:13.723Z,94077.59
2023-02-19T09:08:10.976Z,94069.06
2023-02-19T09:09:07.561Z,94080.84
2023-02-19T09:10:05.394Z,94053.78
2023-02-19T09:11:04.524Z,94066.31
2023-02-19T09:12:01.256Z,94038.91
2023-02-19T09:12:58.013Z,94007.38
2023-02-19T09:13:56.722Z,94074.28
2023-02-19T09:14:53.354Z,94023.75
2023-02-19T09:15:49.962Z,94069.94
2023-02-19T09:16:46.509Z,94069.59
2023-02-19T09:17:43.059Z,94048.56
2023-02-19T09:18:39.907Z,94020.84
2023-02-19T09:19:37.567Z,94052.78
2023-02-19T09:20:34.160Z,94053.38
2023-02-19T09:21:31.515Z,94037.41
2023-02-19T09:22:28.154Z,94058.56
2023-02-19T09:23:24.705Z,94050.56
2023-02-19T09:24:21.721Z,94064.63
2023-02-19T09:25:18.361Z,94061.75
2023-02-19T09:26:15.309Z,94057.88
2023-02-19T09:27:16.966Z,94068.78
2023-02-19T09:28:13.655Z,94072.56
2023-02-19T09:29:10.235Z,94077.28
2023-02-19T09:30:07.431Z,94070.31
2023-02-19T09:31:10.134Z,94076.66
2023-02-19T09:32:07.037Z,94065.94
2023-02-19T09:33:05.679Z,94061.91
2023-02-19T09:34:02.320Z,94067.88
2023-02-19T09:34:59.113Z,94019.88
2023-02-19T09:35:59.635Z,94059.75
2023-02-19T09:36:56.238Z,94060.00
2023-02-19T09:37:52.816Z,94066.72
2023-02-19T09:38:49.448Z,94055.28
2023-02-19T09:39:45.997Z,94054.81
2023-02-19T09:40:42.671Z,94050.31
2023-02-19T09:41:55.394Z,94035.09
2023-02-19T09:42:52.128Z,94043.66
2023-02-19T09:43:48.953Z,94060.22
2023-02-19T09:44:52.235Z,94051.44
2023-02-19T09:46:01.438Z,94058.03
2023-02-19T09:47:00.297Z,94017.47
2023-02-19T09:47:58.685Z,94050.06
2023-02-19T09:49:01.799Z,94058.34
2023-02-19T09:50:07.157Z,94050.47
2023-02-19T09:51:04.960Z,94054.97
2023-02-19T09:52:18.730Z,94057.38
2023-02-19T09:53:25.169Z,94006.34
2023-02-19T09:54:25.266Z,94049.28
2023-02-19T09:55:36.751Z,94041.91
2023-02-19T09:56:34.656Z,94045.00
2023-02-19T09:57:34.659Z,94048.06
2023-02-19T09:58:35.677Z,94019.38
2023-02-19T09:59:40.245Z,94019.00
2023-02-19T10:00:37.599Z,94037.88
2023-02-19T10:01:39.228Z,94032.50
2023-02-19T10:02:35.993Z,94034.19
2023-02-19T10:03:38.510Z,94026.44
2023-02-19T10:04:35.322Z,94027.00
2023-02-19T10:05:33.661Z,94024.00
2023-02-19T10:06:32.682Z,94028.88
2023-02-19T10:07:39.377Z,93998.16
2023-02-19T10:08:37.930Z,94024.28
2023-02-19T10:09:35.962Z,94019.19
2023-02-19T10:10:35.692Z,94003.88
2023-02-19T10:11:32.451Z,94012.06
2023-02-19T10:12:31.735Z,94007.28
2023-02-19T10:13:42.710Z,94005.59
2023-02-19T10:14:48.000Z,94009.19
2023-02-19T10:15:46.859Z,94006.41
2023-02-19T10:16:46.227Z,93980.63
2023-02-19T10:17:42.963Z,93986.00
2023-02-19T10:18:42.476Z,93996.53
2023-02-19T10:19:39.079Z,93976.34
2023-02-19T10:20:35.843Z,93984.94
2023-02-19T10:21:32.482Z,93973.97
2023-02-19T10:22:31.136Z,93981.91
2023-02-19T10:23:28.247Z,93976.84
2023-02-19T10:24:28.832Z,93978.41
2023-02-19T10:25:25.538Z,93957.53
2023-02-19T10:26:23.301Z,93972.81
2023-02-19T10:27:20.078Z,93980.63
2023-02-19T10:28:22.934Z,93961.47
2023-02-19T10:29:21.665Z,93970.97
2023-02-19T10:30:25.029Z,93966.41
2023-02-19T10:31:25.023Z,93962.94
2023-02-19T10:32:24.499Z,93950.78
2023-02-19T10:33:22.317Z,93927.13
2023-02-19T10:34:22.355Z,93945.22
2023-02-19T10:35:19.070Z,93915.91
2023-02-19T10:36:31.304Z,93950.22
2023-02-19T10:37:29.380Z,93949.47
2023-02-19T10:38:28.878Z,93951.34
2023-02-19T10:39:36.573Z,93947.16
2023-02-19T10:40:34.016Z,93953.31
2023-02-19T10:41:31.088Z,93948.63
2023-02-19T10:42:27.838Z,93936.34
2023-02-19T10:43:33.120Z,93933.25
2023-02-19T10:44:35.353Z,93947.09
2023-02-19T10:46:18.041Z,93944.00
2023-02-19T10:47:22.839Z,93939.41
2023-02-19T10:48:30.726Z,93925.97
2023-02-19T10:49:38.489Z,93919.16
2023-02-19T10:50:47.005Z,93903.69
2023-02-19T10:51:44.059Z,93934.75
2023-02-19T10:52:42.451Z,93924.50
2023-02-19T10:53:50.360Z,93916.31
2023-02-19T10:54:55.217Z,93920.03
2023-02-19T10:56:16.563Z,93924.00
2023-02-19T10:57:31.305Z,93924.44
2023-02-19T10:58:28.582Z,93920.66
2023-02-19T10:59:27.729Z,93920.94
2023-02-19T11:00:30.579Z,93910.06
2023-02-19T11:01:27.980Z,93913.28
2023-02-19T11:02:25.878Z,93910.56
2023-02-19T11:03:24.083Z,93910.56
2023-02-19T11:04:20.870Z,93907.88
2023-02-19T11:05:20.640Z,93908.56
2023-02-19T11:06:20.629Z,93903.13
2023-02-19T11:07:18.764Z,93913.63
2023-02-19T11:08:23.284Z,93852.84
2023-02-19T11:09:32.462Z,93898.59
2023-02-19T11:10:50.043Z,93905.66
2023-02-19T11:11:52.274Z,93840.81
2023-02-19T11:12:51.935Z,93899.78
2023-02-19T11:13:48.680Z,93879.25
2023-02-19T11:14:45.709Z,93880.53
2023-02-19T11:15:43.357Z,93901.53
2023-02-19T11:16:43.685Z,93886.66
2023-02-19T11:17:40.418Z,93868.63
2023-02-19T11:18:37.994Z,93891.44
2023-02-19T11:19:38.205Z,93869.22
2023-02-19T11:20:35.573Z,93895.16
2023-02-19T11:21:33.529Z,93896.38
2023-02-19T11:22:30.180Z,93878.69
2023-02-19T11:23:34.210Z,93881.53
2023-02-19T11:24:37.203Z,93887.03
2023-02-19T11:25:33.965Z,93831.09
2023-02-19T11:26:38.214Z,93879.34
2023-02-19T11:27:34.866Z,93872.88
2023-02-19T11:28:32.474Z,93858.25
2023-02-19T11:29:34.687Z,93867.59
2023-02-19T11:30:33.918Z,93871.41
2023-02-19T11:31:33.234Z,93880.72
2023-02-19T11:32:30.942Z,93870.75
2023-02-19T11:33:27.972Z,93806.66
2023-02-19T11:34:30.094Z,93864.47
2023-02-19T11:35:26.684Z,93863.66
2023-02-19T11:36:29.943Z,93863.53
2023-02-19T11:37:26.972Z,93816.47
2023-02-19T11:38:23.665Z,93864.03
2023-02-19T11:39:27.201Z,93855.06
2023-02-19T11:40:35.888Z,93850.56
2023-02-19T11:41:50.900Z,93856.44
2023-02-19T11:43:05.991Z,93774.00
2023-02-19T11:44:18.849Z,93852.06
2023-02-19T11:45:44.953Z,93841.38
2023-02-19T11:46:50.122Z,93842.38
2023-02-19T11:48:30.942Z,93825.72
2023-02-19T11:49:36.606Z,93832.47
2023-02-19T11:50:45.135Z,93830.81